createdAt,value
2018-07-11T00:01:55.765Z,25.30
2018-07-11T00:04:25.270Z,25.30
2018-07-11T00:06:54.578Z,25.20
2018-07-11T00:09:23.933Z,25.20
2018-07-11T00:11:53.246Z,25.20
2018-07-11T00:14:22.613Z,25.20
2018-07-11T00:16:56.991Z,25.20
2018-07-11T00:21:55.083Z,25.20
2018-07-11T00:26:53.163Z,25.10
2018-07-11T00:31:51.310Z,25.10
2018-07-11T00:34:20.752Z,25.10
2018-07-11T00:36:50.238Z,25.10
2018-07-11T00:39:19.738Z,25.10
2018-07-11T00:41:49.239Z,25.10
2018-07-11T00:44:18.697Z,25.10
2018-07-11T00:46:48.196Z,25.10
2018-07-11T00:49:17.638Z,25.10
2018-07-11T00:51:47.093Z,25.10
2018-07-11T00:56:45.447Z,25.10
2018-07-11T00:59:23.376Z,25.10
2018-07-11T01:04:21.631Z,25.10
2018-07-11T01:06:51.359Z,25.10
2018-07-11T01:09:20.746Z,25.10
2018-07-11T01:11:50.257Z,25.10
2018-07-11T01:14:19.763Z,25.10
2018-07-11T01:16:49.232Z,25.10
2018-07-11T01:19:18.797Z,25.10
2018-07-11T01:21:52.670Z,25.10
2018-07-11T01:24:22.002Z,25.10
2018-07-11T01:26:51.314Z,25.10
2018-07-11T01:29:20.744Z,25.10
2018-07-11T01:31:50.079Z,25.10
2018-07-11T01:34:19.371Z,25.10
2018-07-11T01:36:48.767Z,25.00
2018-07-11T01:39:18.132Z,25.10
2018-07-11T01:41:47.489Z,25.10
2018-07-11T01:44:16.789Z,25.10
2018-07-11T01:46:50.570Z,25.10
2018-07-11T01:49:20.113Z,25.10
2018-07-11T01:52:00.289Z,25.10
2018-07-11T01:54:29.874Z,25.10
2018-07-11T01:56:59.337Z,25.10
2018-07-11T01:59:31.221Z,25.10
2018-07-11T02:02:00.702Z,25.10
2018-07-11T02:04:30.391Z,25.10
2018-07-11T02:06:59.979Z,25.00
2018-07-11T02:09:29.853Z,25.00
2018-07-11T02:11:59.323Z,25.00
2018-07-11T02:14:29.092Z,25.00
2018-07-11T02:16:58.884Z,25.00
2018-07-11T02:19:28.368Z,25.00
2018-07-11T02:21:58.958Z,25.00
2018-07-11T02:26:57.102Z,25.00
2018-07-11T02:29:27.334Z,24.90
2018-07-11T02:31:56.831Z,24.90
2018-07-11T02:34:31.358Z,24.90
2018-07-11T02:37:00.607Z,25.00
2018-07-11T02:39:30.008Z,24.90
2018-07-11T02:41:59.835Z,25.00
2018-07-11T02:44:29.115Z,24.90
2018-07-11T02:49:32.586Z,24.90
2018-07-11T02:52:02.036Z,24.90
2018-07-11T02:54:31.418Z,24.90
2018-07-11T02:57:00.921Z,24.90
2018-07-11T03:01:59.234Z,24.90
2018-07-11T03:04:28.856Z,24.90
2018-07-11T03:06:58.263Z,24.90
2018-07-11T03:09:27.640Z,24.90
2018-07-11T03:11:57.081Z,24.90
2018-07-11T03:14:26.788Z,24.90
2018-07-11T03:16:56.173Z,24.90
2018-07-11T03:19:25.538Z,24.90
2018-07-11T03:24:24.458Z,24.90
2018-07-11T03:26:54.129Z,24.90
2018-07-11T03:29:23.453Z,24.90
2018-07-11T03:31:52.784Z,25.00
2018-07-11T03:34:22.056Z,24.90
2018-07-11T03:36:51.524Z,24.90
2018-07-11T03:39:20.858Z,24.90
2018-07-11T03:41:50.219Z,24.90
2018-07-11T03:44:19.565Z,24.80
2018-07-11T03:46:48.929Z,24.80
2018-07-11T03:49:18.376Z,24.90
2018-07-11T03:51:47.734Z,24.90
2018-07-11T03:54:17.076Z,24.90
2018-07-11T03:56:46.411Z,24.90
2018-07-11T03:59:15.815Z,24.90
2018-07-11T04:01:45.190Z,24.90
2018-07-11T04:04:14.612Z,24.90
2018-07-11T04:06:44.040Z,24.80
2018-07-11T04:09:13.530Z,24.80
2018-07-11T04:11:42.838Z,24.80
2018-07-11T04:14:12.203Z,24.80
2018-07-11T04:16:41.576Z,24.80
2018-07-11T04:19:10.962Z,24.80
2018-07-11T04:21:40.228Z,24.80
2018-07-11T04:24:09.603Z,24.80
2018-07-11T04:26:39.036Z,24.70
2018-07-11T04:29:08.501Z,24.80
2018-07-11T04:31:38.016Z,24.80
2018-07-11T04:34:07.912Z,24.70
2018-07-11T04:36:37.361Z,24.80
2018-07-11T04:39:06.773Z,24.70
2018-07-11T04:41:36.243Z,24.70
2018-07-11T04:44:05.728Z,24.70
2018-07-11T04:46:35.326Z,24.70
2018-07-11T04:49:04.754Z,24.70
2018-07-11T04:51:34.669Z,24.70
2018-07-11T04:54:04.134Z,24.70
2018-07-11T04:56:33.598Z,24.70
2018-07-11T04:59:03.003Z,24.70
2018-07-11T05:01:32.322Z,24.70
2018-07-11T05:04:01.791Z,24.70
2018-07-11T05:06:31.170Z,24.70
2018-07-11T05:09:00.421Z,24.70
2018-07-11T05:11:29.748Z,24.70
2018-07-11T05:13:59.068Z,24.70
2018-07-11T05:16:28.315Z,24.60
2018-07-11T05:18:57.673Z,24.70
2018-07-11T05:21:26.948Z,24.70
2018-07-11T05:23:56.327Z,24.60
2018-07-11T05:26:25.650Z,24.60
2018-07-11T05:28:55.077Z,24.70
2018-07-11T05:31:24.369Z,24.70
2018-07-11T05:33:53.771Z,24.70
2018-07-11T05:36:23.123Z,24.70
2018-07-11T05:38:52.420Z,24.70
2018-07-11T05:41:22.500Z,24.70
2018-07-11T05:43:51.935Z,24.70
2018-07-11T05:46:21.222Z,24.70
2018-07-11T05:53:48.130Z,24.70
2018-07-11T05:56:17.471Z,24.70
2018-07-11T05:58:46.785Z,24.70
2018-07-11T06:03:44.856Z,24.70
2018-07-11T06:06:14.205Z,24.70
2018-07-11T06:08:43.577Z,24.80
2018-07-11T06:11:18.497Z,24.80
2018-07-11T06:13:47.794Z,24.80
2018-07-11T06:16:17.235Z,24.80
2018-07-11T06:18:46.681Z,24.80
2018-07-11T06:21:16.025Z,24.80
2018-07-11T06:26:14.156Z,24.80
2018-07-11T06:28:43.775Z,24.80
2018-07-11T06:31:13.124Z,24.90
2018-07-11T06:36:11.326Z,24.90
2018-07-11T06:38:40.783Z,24.90
2018-07-11T06:41:10.101Z,24.90
2018-07-11T06:43:39.577Z,24.90
2018-07-11T06:46:08.960Z,25.00
2018-07-11T06:48:38.353Z,25.00
2018-07-11T06:51:07.798Z,25.00
2018-07-11T06:53:37.219Z,25.00
2018-07-11T07:01:04.091Z,25.10
2018-07-11T07:03:33.450Z,25.10
2018-07-11T07:06:02.724Z,25.10
2018-07-11T07:08:32.033Z,25.10
2018-07-11T07:11:01.360Z,25.10
2018-07-11T07:13:30.705Z,25.10
2018-07-11T07:16:00.048Z,25.10
2018-07-11T07:18:29.416Z,25.10
2018-07-11T07:20:58.757Z,25.10
2018-07-11T07:23:28.113Z,25.20
2018-07-11T07:25:57.464Z,25.20
2018-07-11T07:28:26.790Z,25.20
2018-07-11T07:30:56.137Z,25.20
2018-07-11T07:33:25.462Z,25.20
2018-07-11T07:35:54.864Z,25.20
2018-07-11T07:38:24.323Z,25.20
2018-07-11T07:40:53.628Z,25.30
2018-07-11T07:45:52.102Z,25.20
2018-07-11T07:48:21.593Z,25.20
2018-07-11T07:50:51.040Z,25.20
2018-07-11T07:55:49.480Z,25.20
2018-07-11T07:58:19.096Z,25.20
2018-07-11T08:00:48.664Z,25.30
2018-07-11T08:03:18.050Z,25.40
2018-07-11T08:05:47.398Z,25.50
2018-07-11T08:08:17.033Z,25.50
2018-07-11T08:10:46.448Z,25.50
2018-07-11T08:15:44.622Z,25.50
2018-07-11T08:18:14.184Z,25.50
2018-07-11T08:20:43.588Z,25.60
2018-07-11T08:23:26.521Z,25.60
2018-07-11T08:26:07.314Z,25.60
2018-07-11T08:30:51.997Z,25.70
2018-07-11T08:35:33.281Z,25.70
2018-07-11T08:38:18.201Z,25.70
2018-07-11T08:41:02.126Z,25.80
2018-07-11T08:46:20.591Z,25.80
2018-07-11T08:51:08.783Z,25.80
2018-07-11T08:54:00.421Z,25.80
2018-07-11T08:59:56.439Z,25.80
2018-07-11T09:05:45.174Z,25.70
2018-07-11T09:08:41.941Z,25.60
2018-07-11T09:11:39.447Z,25.60
2018-07-11T09:16:22.189Z,25.60
2018-07-11T09:21:09.482Z,25.60
2018-07-11T09:23:52.666Z,25.60
2018-07-11T09:26:22.018Z,25.70
2018-07-11T09:28:51.334Z,25.80
2018-07-11T09:31:20.739Z,25.90
2018-07-11T09:33:50.123Z,26.10
2018-07-11T09:36:19.532Z,26.20
2018-07-11T09:38:48.916Z,26.20
2018-07-11T09:41:18.520Z,26.30
2018-07-11T09:43:47.940Z,26.40
2018-07-11T09:46:17.439Z,26.50
2018-07-11T09:48:47.288Z,26.50
2018-07-11T09:51:16.845Z,26.60
2018-07-11T09:53:46.154Z,26.70
2018-07-11T09:56:15.697Z,26.90
2018-07-11T10:01:19.274Z,27.20
2018-07-11T10:03:48.795Z,27.30
2018-07-11T10:06:18.235Z,27.30
2018-07-11T10:08:48.170Z,27.20
2018-07-11T10:11:17.523Z,27.20
2018-07-11T10:13:47.107Z,27.20
2018-07-11T10:16:16.904Z,27.10
2018-07-11T10:18:53.671Z,27.20
2018-07-11T10:21:23.165Z,27.20
2018-07-11T10:23:52.933Z,27.20
2018-07-11T10:26:22.576Z,27.20
2018-07-11T10:28:52.273Z,27.20
2018-07-11T10:31:21.847Z,27.20
2018-07-11T10:33:51.242Z,27.20
2018-07-11T10:36:23.722Z,27.30
2018-07-11T10:38:53.203Z,27.40
2018-07-11T10:41:22.750Z,27.40
2018-07-11T10:43:52.171Z,27.40
2018-07-11T10:46:21.660Z,27.50
2018-07-11T10:48:51.069Z,27.50
2018-07-11T10:51:20.640Z,27.50
2018-07-11T10:53:50.180Z,27.30
2018-07-11T10:56:19.792Z,27.20
2018-07-11T11:01:19.478Z,27.10
2018-07-11T11:03:48.880Z,27.20
2018-07-11T11:06:18.301Z,27.30
2018-07-11T11:08:47.748Z,27.50
2018-07-11T11:11:17.549Z,27.70
2018-07-11T11:13:47.045Z,27.90
2018-07-11T11:16:16.483Z,28.10
2018-07-11T11:18:45.948Z,28.30
2018-07-11T11:21:15.498Z,28.40
2018-07-11T11:23:44.855Z,28.60
2018-07-11T11:26:14.307Z,28.70
2018-07-11T11:28:43.674Z,28.70
2018-07-11T11:31:13.075Z,28.70
2018-07-11T11:33:42.389Z,28.60
2018-07-11T11:36:11.808Z,28.70
2018-07-11T11:38:41.163Z,28.60
2018-07-11T11:41:10.539Z,28.70
2018-07-11T11:43:40.063Z,28.70
2018-07-11T11:46:09.386Z,28.70
2018-07-11T11:48:38.713Z,28.70
2018-07-11T11:51:08.105Z,28.60
2018-07-11T11:53:37.435Z,28.50
2018-07-11T11:56:06.817Z,28.40
2018-07-11T11:58:36.291Z,28.20
2018-07-11T12:01:05.630Z,28.00
2018-07-11T12:03:35.093Z,28.00
2018-07-11T12:06:04.479Z,27.90
2018-07-11T12:08:33.776Z,27.80
2018-07-11T12:11:03.202Z,27.70
2018-07-11T12:13:32.642Z,27.70
2018-07-11T12:16:02.475Z,27.60
2018-07-11T12:18:31.847Z,27.50
2018-07-11T12:21:01.278Z,27.40
2018-07-11T12:23:30.765Z,27.40
2018-07-11T12:26:09.389Z,27.30
2018-07-11T12:28:38.931Z,27.30
2018-07-11T12:31:08.291Z,27.10
2018-07-11T12:33:37.723Z,26.90
2018-07-11T12:36:07.039Z,26.90
2018-07-11T12:38:36.504Z,26.90
2018-07-11T12:41:05.925Z,26.90
2018-07-11T12:43:35.365Z,26.80
2018-07-11T12:46:04.797Z,26.80
2018-07-11T12:48:39.424Z,26.80
2018-07-11T12:51:08.991Z,26.90
2018-07-11T12:53:38.464Z,26.90
2018-07-11T12:56:07.900Z,26.90
2018-07-11T12:58:37.427Z,27.00
2018-07-11T13:01:08.070Z,27.00
2018-07-11T13:03:38.213Z,27.00
2018-07-11T13:06:09.045Z,26.90
2018-07-11T13:08:38.749Z,26.80
2018-07-11T13:11:08.402Z,26.70
2018-07-11T13:13:37.918Z,26.60
2018-07-11T13:16:07.407Z,26.70
2018-07-11T13:18:36.878Z,26.60
2018-07-11T13:21:06.180Z,26.50
2018-07-11T13:23:35.529Z,26.60
2018-07-11T13:26:04.993Z,26.50
2018-07-11T13:28:34.298Z,26.50
2018-07-11T13:31:05.224Z,26.50
2018-07-11T13:33:34.633Z,26.50
2018-07-11T13:36:04.037Z,26.50
2018-07-11T13:38:33.617Z,26.50
2018-07-11T13:41:03.070Z,26.60
2018-07-11T13:43:32.459Z,26.60
2018-07-11T13:46:01.914Z,26.80
2018-07-11T13:48:31.294Z,26.80
2018-07-11T13:51:00.651Z,26.80
2018-07-11T13:53:30.084Z,26.80
2018-07-11T13:55:59.610Z,26.70
2018-07-11T13:58:29.193Z,26.70
2018-07-11T14:00:58.697Z,26.80
2018-07-11T14:03:28.832Z,26.70
2018-07-11T14:05:58.287Z,26.60
2018-07-11T14:08:27.883Z,26.50
2018-07-11T14:10:57.347Z,26.50
2018-07-11T14:13:26.827Z,26.60
2018-07-11T14:15:56.330Z,26.50
2018-07-11T14:18:26.065Z,26.50
2018-07-11T14:20:55.749Z,26.30
2018-07-11T14:23:37.839Z,26.30
2018-07-11T14:26:08.200Z,26.20
2018-07-11T14:28:47.807Z,26.10
2018-07-11T14:31:27.954Z,26.10
2018-07-11T14:33:58.064Z,26.10
2018-07-11T14:36:27.554Z,26.10
2018-07-11T14:38:56.984Z,26.20
2018-07-11T14:41:26.537Z,26.20
2018-07-11T14:43:56.953Z,26.10
2018-07-11T14:46:27.785Z,26.10
2018-07-11T14:48:57.438Z,26.10
2018-07-11T14:51:27.269Z,26.10
2018-07-11T14:53:57.631Z,26.10
2018-07-11T14:56:27.063Z,26.10
2018-07-11T14:58:57.662Z,26.10
2018-07-11T15:01:27.090Z,26.10
2018-07-11T15:03:56.446Z,26.10
2018-07-11T15:06:25.934Z,26.10
2018-07-11T15:08:56.317Z,26.10
2018-07-11T15:11:25.964Z,26.10
2018-07-11T15:13:55.435Z,26.00
2018-07-11T15:16:25.414Z,25.90
2018-07-11T15:18:54.839Z,25.90
2018-07-11T15:21:24.270Z,25.80
2018-07-11T15:23:53.805Z,25.80
2018-07-11T15:26:23.337Z,25.80
2018-07-11T15:28:52.996Z,25.90
2018-07-11T15:31:22.490Z,25.90
2018-07-11T15:33:53.478Z,25.90
2018-07-11T15:36:22.913Z,25.90
2018-07-11T15:38:52.400Z,25.90
2018-07-11T15:41:21.920Z,25.90
2018-07-11T15:43:51.466Z,25.90
2018-07-11T15:46:21.549Z,26.00
2018-07-11T15:48:51.200Z,26.10
2018-07-11T15:51:20.771Z,26.20
2018-07-11T15:56:19.140Z,26.40
2018-07-11T15:58:55.410Z,26.40
2018-07-11T16:01:24.999Z,26.50
2018-07-11T16:03:54.399Z,26.80
2018-07-11T16:06:23.829Z,27.00
2018-07-11T16:08:53.435Z,27.10
2018-07-11T16:11:22.815Z,27.20
2018-07-11T16:13:52.145Z,27.30
2018-07-11T16:18:51.711Z,27.40
2018-07-11T16:21:21.239Z,27.30
2018-07-11T16:23:51.784Z,27.30
2018-07-11T16:26:21.518Z,27.20
2018-07-11T16:31:20.316Z,27.20
2018-07-11T16:33:50.149Z,27.30
2018-07-11T16:36:19.807Z,27.40
2018-07-11T16:38:49.210Z,27.50
2018-07-11T16:41:19.716Z,27.50
2018-07-11T16:43:50.372Z,27.60
2018-07-11T16:46:19.920Z,27.60
2018-07-11T16:51:19.306Z,27.60
2018-07-11T16:53:50.333Z,27.70
2018-07-11T16:56:20.012Z,27.70
2018-07-11T16:58:54.168Z,27.80
2018-07-11T17:01:30.113Z,27.80
2018-07-11T17:03:59.634Z,27.90
2018-07-11T17:06:29.155Z,27.90
2018-07-11T17:14:04.695Z,27.80
2018-07-11T17:16:40.063Z,27.80
2018-07-11T17:19:17.123Z,27.70
2018-07-11T17:21:50.212Z,27.80
2018-07-11T17:24:22.186Z,27.80
2018-07-11T17:26:55.579Z,27.80
2018-07-11T17:29:30.463Z,27.80
2018-07-11T17:32:05.344Z,27.80
2018-07-11T17:34:37.533Z,27.80
2018-07-11T17:39:48.891Z,27.80
2018-07-11T17:42:30.049Z,27.90
2018-07-11T17:45:10.473Z,27.90
2018-07-11T17:48:07.061Z,27.90
2018-07-11T17:50:39.147Z,27.90
2018-07-11T17:53:13.736Z,27.90
2018-07-11T17:56:05.561Z,27.90
2018-07-11T17:58:45.801Z,27.80
2018-07-11T18:01:15.355Z,27.80
2018-07-11T18:04:07.075Z,27.70
2018-07-11T18:06:41.465Z,27.70
2018-07-11T18:09:13.981Z,27.70
2018-07-11T18:11:56.667Z,27.80
2018-07-11T18:15:02.652Z,27.70
2018-07-11T18:19:45.289Z,27.70
2018-07-11T18:22:38.635Z,27.70
2018-07-11T18:25:34.043Z,27.70
2018-07-11T18:28:16.258Z,27.70
2018-07-11T18:30:55.105Z,27.70
2018-07-11T18:33:37.888Z,27.70
2018-07-11T18:38:23.287Z,27.70
2018-07-11T18:41:10.633Z,27.70
2018-07-11T18:47:57.032Z,27.60
2018-07-11T18:51:34.688Z,27.60
2018-07-11T18:54:10.714Z,27.50
2018-07-11T18:56:49.346Z,27.40
2018-07-11T19:02:29.847Z,27.50
2018-07-11T19:05:11.809Z,27.40
2018-07-11T19:07:51.497Z,27.40
2018-07-11T19:10:35.219Z,27.40
2018-07-11T19:13:14.411Z,27.30
2018-07-11T19:15:46.057Z,27.40
2018-07-11T19:18:22.185Z,27.40
2018-07-11T19:21:07.758Z,27.30
2018-07-11T19:23:49.596Z,27.30
2018-07-11T19:26:55.648Z,27.30
2018-07-11T19:30:34.338Z,27.30
2018-07-11T19:35:52.559Z,27.20
2018-07-11T19:38:43.031Z,27.20
2018-07-11T19:41:21.894Z,27.30
2018-07-11T19:46:04.779Z,27.30
2018-07-11T19:50:53.654Z,27.20
2018-07-11T19:53:33.889Z,27.20
2018-07-11T19:56:25.722Z,27.20
2018-07-11T19:58:55.146Z,27.20
2018-07-11T20:01:24.515Z,27.20
2018-07-11T20:03:53.940Z,27.20
2018-07-11T20:06:23.328Z,27.10
2018-07-11T20:08:53.279Z,27.10
2018-07-11T20:11:23.087Z,27.10
2018-07-11T20:13:53.938Z,27.10
2018-07-11T20:16:24.037Z,27.00
2018-07-11T20:18:53.612Z,27.00
2018-07-11T20:21:23.783Z,27.00
2018-07-11T20:23:53.107Z,26.90
2018-07-11T20:26:22.419Z,26.90
2018-07-11T20:31:20.824Z,26.80
2018-07-11T20:33:50.087Z,26.80
2018-07-11T20:36:19.489Z,26.80
2018-07-11T20:38:48.799Z,26.80
2018-07-11T20:41:18.118Z,26.70
2018-07-11T20:46:16.790Z,26.70
2018-07-11T20:48:46.265Z,26.70
2018-07-11T20:51:15.707Z,26.70
2018-07-11T20:53:45.092Z,26.70
2018-07-11T20:56:14.631Z,26.60
2018-07-11T21:01:28.754Z,26.60
2018-07-11T21:04:40.184Z,26.60
2018-07-11T21:08:21.130Z,26.60
2018-07-11T21:10:57.736Z,26.70
2018-07-11T21:15:20.885Z,26.70
2018-07-11T21:19:59.639Z,26.70
2018-07-11T21:22:29.086Z,26.60
2018-07-11T21:24:58.392Z,26.60
2018-07-11T21:27:27.786Z,26.60
2018-07-11T21:29:57.084Z,26.60
2018-07-11T21:32:26.365Z,26.60
2018-07-11T21:34:55.710Z,26.60
2018-07-11T21:37:25.300Z,26.60
2018-07-11T21:39:54.822Z,26.60
2018-07-11T21:42:24.254Z,26.60
2018-07-11T21:44:53.843Z,26.60
2018-07-11T21:47:23.764Z,26.50
2018-07-11T21:49:53.122Z,26.50
2018-07-11T21:52:22.447Z,26.50
2018-07-11T21:54:51.749Z,26.50
2018-07-11T21:57:21.138Z,26.50
2018-07-11T21:59:50.858Z,26.50
2018-07-11T22:02:20.302Z,26.50
2018-07-11T22:07:19.632Z,26.50
2018-07-11T22:09:48.980Z,26.50
2018-07-11T22:12:18.621Z,26.50
2018-07-11T22:14:47.989Z,26.50
2018-07-11T22:18:30.347Z,26.50
2018-07-11T22:20:58.068Z,26.50
2018-07-11T22:23:25.840Z,26.50
2018-07-11T22:25:53.591Z,26.50
2018-07-11T22:28:21.606Z,26.50
2018-07-11T22:30:49.347Z,26.50
2018-07-11T22:33:17.139Z,26.50
2018-07-11T22:35:44.880Z,26.50
2018-07-11T22:38:13.331Z,26.40
2018-07-11T22:40:41.521Z,26.40
2018-07-11T22:43:09.263Z,26.40
2018-07-11T22:45:37.009Z,26.40
2018-07-11T22:48:04.746Z,26.40
2018-07-11T22:50:32.465Z,26.40
2018-07-11T22:53:00.227Z,26.40
2018-07-11T22:55:28.003Z,26.40
2018-07-11T22:57:55.763Z,26.40
2018-07-11T23:00:23.536Z,26.30
2018-07-11T23:02:51.320Z,26.30
2018-07-11T23:05:19.069Z,26.30
2018-07-11T23:07:46.825Z,26.30
2018-07-11T23:10:14.642Z,26.40
2018-07-11T23:12:42.365Z,26.30
2018-07-11T23:15:10.105Z,26.30
2018-07-11T23:17:37.884Z,26.30
2018-07-11T23:20:05.636Z,26.30
2018-07-11T23:22:33.378Z,26.30
2018-07-11T23:25:01.152Z,26.30
2018-07-11T23:27:28.906Z,26.30
2018-07-11T23:29:56.680Z,26.30
2018-07-11T23:32:24.472Z,26.30
2018-07-11T23:34:52.219Z,26.30
2018-07-11T23:37:20.012Z,26.20
2018-07-11T23:42:15.756Z,26.20
2018-07-11T23:49:39.540Z,26.20
2018-07-11T23:52:07.332Z,26.20
2018-07-11T23:54:35.081Z,26.10
2018-07-11T23:59:30.868Z,26.10
